Time;durP1;ratioP1;P1;durP2;ratioP2;P2;SDS_P1;SDS_P2;PMS_P1;PMS_P2;Temp;Humidity;BMP_temperature;BMP_pressure;BME280_temperature;BME280_humidity;BME280_pressure;Samples;Min_cycle;Max_cycle;Signal;HPM_P1;HPM_P2
2022/08/12 00:42:50;;;;;;;15.23;2.63;;;;;;;-144.47;36.88;53018.97;5040007;28;20417;-69
2022/08/12 00:45:17;;;;;;;10.35;2.45;;;;;;;-144.47;37.05;53026.91;5052122;28;20097;-72
2022/08/12 00:47:43;;;;;;;5.35;2.28;;;;;;;-144.47;36.99;53054.72;5051367;28;20024;-68
2022/08/12 00:50:17;;;;;;;5.20;2.20;;;;;;;-144.47;37.14;53048.75;5031694;28;20464;-67
2022/08/12 00:52:44;;;;;;;6.18;2.45;;;;;;;-144.47;37.33;53040.81;5056274;28;20031;-70
2022/08/12 00:55:10;;;;;;;5.43;2.30;;;;;;;-144.47;37.66;53068.63;5090408;28;20024;-66
2022/08/12 00:57:35;;;;;;;8.40;2.50;;;;;;;-144.47;37.52;53062.66;5089407;28;20020;-70
2022/08/12 01:00:17;;;;;;;7.38;2.70;;;;;;;-144.47;37.72;53038.81;5090225;28;20023;-69
2022/08/12 01:02:51;;;;;;;6.28;2.55;;;;;;;-144.47;37.90;53050.75;5089292;28;20043;-68
2022/08/12 01:11:31;;;;;;;6.30;2.03;;;;;;;-144.47;38.50;53050.75;5026688;28;20036;-70
2022/08/12 01:13:59;;;;;;;23.75;2.97;;;;;;;-144.47;38.68;53038.81;5026436;28;20055;-70
2022/08/12 01:16:25;;;;;;;12.45;2.70;;;;;;;-144.47;38.73;53060.66;5089056;28;20426;-66
2022/08/12 01:18:53;;;;;;;6.70;2.38;;;;;;;-144.47;38.50;53066.63;5070974;28;20079;-70
2022/08/12 01:21:43;;;;;;;4.77;2.10;;;;;;;-144.47;38.52;53044.78;5071396;28;20032;-67
2022/08/12 01:24:32;;;;;;;10.73;2.83;;;;;;;-144.47;38.74;53072.59;5081436;28;20378;-67
2022/08/12 01:27:02;;;;;;;6.15;1.90;;;;;;;-144.47;38.89;53072.59;5060792;28;20505;-69
2022/08/12 01:29:30;;;;;;;4.38;1.88;;;;;;;-144.47;39.27;53078.53;5055281;28;20024;-70
2022/08/12 01:31:58;;;;;;;5.82;2.30;;;;;;;-144.47;39.56;53058.69;5024592;28;20114;-67
2022/08/12 01:34:30;;;;;;;11.73;2.33;;;;;;;-144.47;39.84;53066.63;5055084;28;20437;-69
2022/08/12 01:36:59;;;;;;;6.10;2.33;;;;;;;-144.47;39.95;53056.69;5055389;28;20174;-68
2022/08/12 01:39:32;;;;;;;5.13;2.05;;;;;;;-144.47;39.98;53050.75;5054879;28;20025;-67
2022/08/12 01:42:01;;;;;;;4.20;2.20;;;;;;;-144.47;40.02;53062.66;5054911;28;20028;-66
2022/08/12 01:44:29;;;;;;;5.00;2.05;;;;;;;-144.47;39.68;53082.53;5072567;28;20039;-69
2022/08/12 01:47:33;;;;;;;5.33;2.17;;;;;;;-144.47;39.49;53056.69;5055058;28;20021;-66
2022/08/12 01:50:23;;;;;;;8.20;2.25;;;;;;;-144.47;39.70;53042.78;5072891;28;20251;-69
2022/08/12 01:53:14;;;;;;;10.88;2.83;;;;;;;-144.47;39.93;53042.78;5072688;28;20152;-68
2022/08/12 01:55:44;;;;;;;9.60;2.03;;;;;;;-144.47;40.33;53066.63;5054732;28;20029;-67
2022/08/12 01:58:26;;;;;;;6.68;2.40;;;;;;;-144.47;40.10;53056.69;5037585;28;20108;-70
2022/08/12 02:01:03;;;;;;;7.78;3.08;;;;;;;-144.47;40.01;53044.78;5072778;28;20417;-69
2022/08/12 02:12:59;;;;;;;8.18;2.28;;;;;;;-144.47;39.89;53076.56;5057533;28;20115;-69
2022/08/12 02:15:52;;;;;;;6.28;1.70;;;;;;;-144.47;40.13;53074.56;5034530;28;20111;-70
2022/08/12 02:18:24;;;;;;;9.80;2.88;;;;;;;-144.47;40.15;53054.72;5069338;28;20032;-68
2022/08/12 02:21:02;;;;;;;6.35;2.08;;;;;;;-144.47;40.20;53054.72;5072026;28;20032;-67
2022/08/12 02:23:33;;;;;;;8.32;2.85;;;;;;;-144.47;40.23;53040.81;5034026;28;20029;-67
2022/08/12 02:26:04;;;;;;;13.50;3.03;;;;;;;-144.47;40.31;53068.63;5048315;28;20056;-67
2022/08/12 02:28:30;;;;;;;9.48;2.20;;;;;;;-144.47;40.55;53094.44;5024313;28;20031;-66
2022/08/12 02:31:00;;;;;;;6.80;2.45;;;;;;;-144.47;40.75;53066.63;5057588;28;20017;-67
2022/08/12 02:33:26;;;;;;;10.38;2.55;;;;;;;-144.47;40.93;53048.75;5074234;28;20510;-70
2022/08/12 02:35:53;;;;;;;8.50;2.22;;;;;;;-144.47;41.05;53066.63;5053281;28;20021;-69
2022/08/12 02:38:20;;;;;;;12.57;2.72;;;;;;;-144.47;41.33;53058.69;5033962;28;20037;-68
2022/08/12 02:40:51;;;;;;;4.95;2.28;;;;;;;-144.47;41.42;53040.81;5041738;28;20258;-71
2022/08/12 02:43:26;;;;;;;6.68;2.17;;;;;;;-144.47;41.36;53084.50;5037333;28;20017;-68
2022/08/12 02:45:56;;;;;;;9.82;2.60;;;;;;;-144.47;41.24;53104.38;5037447;28;20032;-69
2022/08/12 02:48:36;;;;;;;9.52;2.30;;;;;;;-144.47;41.28;53098.41;5053035;28;20020;-70
2022/08/12 02:51:09;;;;;;;9.13;2.00;;;;;;;-144.47;41.14;53054.72;5054461;28;20016;-69
2022/08/12 02:53:36;;;;;;;6.13;2.35;;;;;;;-144.47;41.34;53024.91;5071399;28;20050;-67
2022/08/12 02:56:03;;;;;;;7.22;2.50;;;;;;;-144.47;41.36;53038.81;5053423;28;20020;-66
2022/08/12 02:58:31;;;;;;;9.07;2.47;;;;;;;-144.47;41.44;53084.50;5053562;28;20031;-68
2022/08/12 03:01:00;;;;;;;5.88;2.22;;;;;;;-144.47;41.46;53068.63;5053807;28;20029;-66
2022/08/12 03:03:29;;;;;;;8.32;2.50;;;;;;;-144.47;41.60;53074.56;5053193;28;20050;-69
2022/08/12 03:06:05;;;;;;;11.43;2.60;;;;;;;-144.47;41.68;53036.84;5071257;28;20035;-66
2022/08/12 03:08:39;;;;;;;9.75;2.20;;;;;;;-144.47;41.94;53036.84;5070857;28;20032;-68
2022/08/12 03:11:14;;;;;;;11.27;2.53;;;;;;;-144.47;41.94;53100.41;5070961;28;20480;-65
2022/08/12 03:13:44;;;;;;;13.07;2.83;;;;;;;-144.47;42.12;53090.47;5070740;28;20028;-68
2022/08/12 03:16:10;;;;;;;7.30;2.45;;;;;;;-144.47;42.35;53044.78;5070975;28;20095;-70
2022/08/12 03:18:36;;;;;;;4.80;2.35;;;;;;;-144.47;42.44;53040.81;5032815;28;20144;-68
2022/08/12 03:21:02;;;;;;;5.80;2.22;;;;;;;-144.47;42.30;53034.84;5031400;28;20114;-67
2022/08/12 03:23:28;;;;;;;5.53;2.20;;;;;;;-144.47;42.74;53152.03;5092078;28;20274;-65
2022/08/12 03:25:55;;;;;;;10.60;2.70;;;;;;;-144.47;42.78;53114.31;5073592;28;20027;-68
2022/08/12 03:31:07;;;;;;;7.90;2.85;;;;;;;-144.47;42.87;53074.56;5073247;28;20032;-70
2022/08/12 03:33:38;;;;;;;6.85;3.03;;;;;;;-144.47;43.10;53074.56;5020432;28;20220;-71
2022/08/12 03:36:06;;;;;;;6.95;2.70;;;;;;;-144.47;43.07;53078.53;5053102;28;20073;-68
2022/08/12 03:38:36;;;;;;;6.00;2.53;;;;;;;-144.47;43.19;53098.41;5033494;28;20120;-68
2022/08/12 04:00:55;;;;;;;7.00;3.08;;;;;;;-144.47;44.38;53142.09;5070539;28;20062;-65
2022/08/12 04:06:08;;;;;;;15.95;3.85;;;;;;;-144.47;44.34;53098.41;5040941;28;20035;-69
2022/08/12 04:08:34;;;;;;;13.55;3.00;;;;;;;-144.47;44.19;53088.47;5035486;28;20394;-69
2022/08/12 04:13:46;;;;;;;12.75;2.90;;;;;;;-144.47;44.43;53066.63;5069831;28;20040;-66
2022/08/12 04:16:13;;;;;;;7.55;2.65;;;;;;;-144.47;44.46;53098.41;5069728;28;20103;-71
2022/08/12 04:18:39;;;;;;;7.50;2.40;;;;;;;-144.47;44.57;53090.47;5089672;28;20027;-69
2022/08/12 04:21:08;;;;;;;10.77;2.97;;;;;;;-144.47;44.30;53096.41;5071740;28;20485;-68
2022/08/12 04:23:34;;;;;;;;;;;;;;;-144.47;44.08;53094.44;5072382;28;20047;-66
2022/08/12 04:25:59;;;;;;;10.88;4.00;;;;;;;-144.47;44.20;53114.31;5089951;28;19942;-70
2022/08/12 04:28:26;;;;;;;11.48;3.22;;;;;;;-144.47;44.13;53080.53;5071802;28;20024;-67
2022/08/12 04:30:52;;;;;;;12.23;3.42;;;;;;;-144.47;44.38;53056.69;5071975;28;20036;-70
2022/08/12 04:33:18;;;;;;;10.20;2.97;;;;;;;-144.47;44.35;53052.72;5073192;28;20020;-71
2022/08/12 04:35:46;;;;;;;10.85;3.22;;;;;;;-144.47;44.01;53088.47;5051870;28;20021;-66
2022/08/12 04:38:11;;;;;;;5.65;2.53;;;;;;;-144.47;43.25;53092.44;5051798;28;20031;-69
2022/08/12 04:40:38;;;;;;;7.15;2.83;;;;;;;-144.47;43.26;53110.31;5051857;28;20103;-71
2022/08/12 04:43:03;;;;;;;8.07;2.60;;;;;;;-144.47;43.22;53072.59;5052138;28;20020;-69
2022/08/12 04:45:31;;;;;;;11.98;3.30;;;;;;;-144.47;42.97;53084.50;5034807;28;20028;-69
2022/08/12 04:47:57;;;;;;;8.25;2.97;;;;;;;-144.47;42.70;53120.25;5066402;28;20031;-71
2022/08/12 04:50:24;;;;;;;13.20;3.75;;;;;;;-144.47;42.64;53074.56;5068634;28;20024;-71
2022/08/12 04:52:50;;;;;;;14.25;2.83;;;;;;;-144.47;42.70;53084.50;5069149;28;20035;-71
2022/08/12 04:55:17;;;;;;;8.85;2.63;;;;;;;-144.47;42.85;53092.44;5037370;28;20130;-70
2022/08/12 04:57:43;;;;;;;7.22;2.55;;;;;;;-144.47;42.87;53090.47;5068622;28;20036;-71
2022/08/12 05:00:13;;;;;;;13.23;3.03;;;;;;;-144.47;42.93;53096.41;5050932;28;20020;-70
2022/08/12 05:02:39;;;;;;;10.25;3.22;;;;;;;-144.47;43.02;53106.34;5049503;28;20451;-69
2022/08/12 05:05:07;;;;;;;8.15;3.15;;;;;;;-144.47;43.07;53080.53;5023315;28;20074;-67
2022/08/12 05:07:34;;;;;;;9.77;3.20;;;;;;;-144.47;43.53;53110.31;5049158;28;20462;-67
2022/08/12 05:10:00;;;;;;;7.30;3.15;;;;;;;-144.47;43.39;53086.50;5050117;28;20052;-70
2022/08/12 05:12:31;;;;;;;7.55;2.90;;;;;;;-144.47;43.14;53114.31;5049823;28;20024;-67
2022/08/12 05:14:58;;;;;;;8.55;2.90;;;;;;;-144.47;43.32;53080.53;5065239;28;20024;-69
2022/08/12 05:17:24;;;;;;;12.45;3.83;;;;;;;-144.47;43.24;53098.41;5064837;28;20040;-71
2022/08/12 05:19:50;;;;;;;9.13;3.97;;;;;;;-144.47;43.32;53118.28;5067754;28;20032;-72
2022/08/12 05:22:16;;;;;;;10.38;3.53;;;;;;;-144.47;43.13;53070.59;5067838;28;20027;-68
2022/08/12 05:24:42;;;;;;;12.23;2.58;;;;;;;-144.47;43.22;53070.59;5068085;28;20158;-69
2022/08/12 05:27:10;;;;;;;7.35;2.60;;;;;;;-144.47;43.22;53064.66;5066665;28;20030;-71
2022/08/12 05:29:35;;;;;;;9.88;3.70;;;;;;;-144.47;43.27;53068.63;5066823;28;20427;-70
2022/08/12 05:32:01;;;;;;;11.05;2.72;;;;;;;-144.47;43.39;53074.56;5049402;28;20110;-69
2022/08/12 05:34:28;;;;;;;14.27;3.17;;;;;;;-144.47;43.39;53060.66;5059666;28;20025;-68
2022/08/12 05:36:53;;;;;;;7.45;3.00;;;;;;;-144.47;42.86;53066.63;5065306;28;20297;-70
2022/08/12 05:39:22;;;;;;;7.22;2.75;;;;;;;-144.47;42.75;53110.31;5050287;28;20354;-69
2022/08/12 05:41:47;;;;;;;12.48;3.38;;;;;;;-144.47;42.42;53050.75;5049069;28;20025;-69
2022/08/12 05:44:15;;;;;;;12.95;3.22;;;;;;;-144.47;41.88;53064.66;5069378;28;20594;-67
2022/08/12 05:46:43;;;;;;;11.98;2.78;;;;;;;-144.47;41.59;53066.63;5068895;28;20025;-70
2022/08/12 05:49:08;;;;;;;10.52;2.80;;;;;;;-144.47;41.40;53082.53;5068436;28;21671;-69
2022/08/12 05:51:36;;;;;;;12.15;3.15;;;;;;;-144.47;41.19;53050.75;5050998;28;20485;-68
2022/08/12 05:54:02;;;;;;;8.85;3.00;;;;;;;-144.47;41.00;53090.47;5049813;28;20044;-67
2022/08/12 05:56:34;;;;;;;11.50;2.67;;;;;;;-144.47;40.86;53086.50;5050875;28;20029;-66
2022/08/12 05:59:02;;;;;;;10.23;3.13;;;;;;;-144.47;40.75;53068.63;5050702;28;20017;-71
2022/08/12 06:01:28;;;;;;;15.27;2.90;;;;;;;-144.47;40.78;53060.66;5050957;28;20103;-68
2022/08/12 06:03:54;;;;;;;22.85;3.22;;;;;;;-144.47;40.71;52999.09;5069230;28;20032;-67
2022/08/12 06:06:21;;;;;;;12.45;3.25;;;;;;;-144.47;40.47;53048.75;5050386;28;20036;-70
2022/08/12 06:08:52;;;;;;;12.23;2.85;;;;;;;-144.47;40.40;53060.66;5068843;28;20052;-69
2022/08/12 06:11:21;;;;;;;12.27;2.92;;;;;;;-144.47;40.13;53078.53;5071853;28;20024;-68
2022/08/12 06:13:47;;;;;;;18.33;3.55;;;;;;;-144.47;39.93;53078.53;5072402;28;20017;-70
2022/08/12 06:16:16;;;;;;;11.18;3.15;;;;;;;-144.47;40.04;53022.94;5072278;28;20024;-69
2022/08/12 06:18:43;;;;;;;9.63;3.63;;;;;;;-144.47;39.76;53062.66;5054586;28;20021;-68
2022/08/12 06:21:11;;;;;;;12.23;2.90;;;;;;;-144.47;39.44;53032.88;5078616;23;20067;-65
2022/08/12 06:23:37;;;;;;;;;;;;;;;-144.47;39.41;53056.69;5072369;28;20535;-64
2022/08/12 06:26:04;;;;;;;16.55;3.05;;;;;;;-144.47;39.31;53030.88;5067839;28;19908;-66
2022/08/12 06:28:29;;;;;;;10.98;2.95;;;;;;;-144.47;39.17;53080.53;5054370;28;20475;-67
2022/08/12 06:30:57;;;;;;;17.23;3.22;;;;;;;-144.47;38.92;53036.84;5020534;28;20128;-65
2022/08/12 06:33:22;;;;;;;12.45;3.03;;;;;;;-144.47;38.68;53024.91;5049487;28;20025;-66
2022/08/12 06:35:48;;;;;;;15.43;3.17;;;;;;;-144.47;38.44;53056.69;5044286;28;20384;-65
2022/08/12 06:38:20;;;;;;;7.82;2.50;;;;;;;-144.47;38.46;53040.81;5033760;28;20107;-66
2022/08/12 06:43:35;;;;;;;10.18;2.15;;;;;;;-144.47;37.49;53074.56;5059411;28;20074;-66
2022/08/12 06:46:00;;;;;;;6.70;2.28;;;;;;;-144.47;37.52;53042.78;5074324;28;20020;-65
2022/08/12 06:48:27;;;;;;;7.88;2.83;;;;;;;-144.47;37.58;53018.97;5072900;28;20386;-66
2022/08/12 06:50:54;;;;;;;5.97;1.95;;;;;;;-144.47;37.60;53026.91;5069363;28;20024;-67
2022/08/12 06:53:20;;;;;;;11.35;2.63;;;;;;;-144.47;37.72;53042.78;5074023;28;20056;-66
2022/08/12 06:55:45;;;;;;;6.28;2.15;;;;;;;-144.47;37.84;53020.94;5059840;28;20024;-66
2022/08/12 06:58:13;;;;;;;6.60;2.88;;;;;;;-144.47;37.81;53022.94;5048070;28;20036;-66
2022/08/12 07:00:42;;;;;;;14.37;2.97;;;;;;;-144.47;37.95;53018.97;5051286;28;20027;-64
2022/08/12 07:03:08;;;;;;;10.77;3.10;;;;;;;-144.47;37.98;53015.00;5058910;28;20265;-68
2022/08/12 07:05:34;;;;;;;15.70;3.22;;;;;;;-144.47;37.93;52999.09;5052119;28;20036;-66
2022/08/12 07:08:05;;;;;;;10.15;3.55;;;;;;;-144.47;38.00;53036.84;5050360;28;20024;-66
2022/08/12 07:10:34;;;;;;;9.02;2.50;;;;;;;-144.47;37.87;53040.81;5051940;28;20017;-66
2022/08/12 07:13:00;;;;;;;;;;;;;;;-144.47;37.65;53060.66;5052443;28;20120;-66
2022/08/12 07:15:27;;;;;;;6.80;2.53;;;;;;;-144.47;37.28;53030.88;5052309;28;19978;-65
2022/08/12 07:18:18;;;;;;;16.17;2.30;;;;;;;-144.47;37.17;53018.97;5051396;28;20023;-65
2022/08/12 07:20:46;;;;;;;10.38;2.13;;;;;;;-144.47;37.01;53026.91;5051274;28;20033;-64
2022/08/12 07:23:14;;;;;;;10.40;1.95;;;;;;;-144.47;36.85;53022.94;5051403;28;20024;-65
2022/08/12 07:25:39;;;;;;;6.05;1.95;;;;;;;-144.47;36.88;53046.75;5051954;28;20027;-70
2022/08/12 07:28:12;;;;;;;16.17;2.15;;;;;;;-144.47;36.67;52993.13;5051896;28;20029;-65
2022/08/12 07:30:40;;;;;;;4.57;2.17;;;;;;;-144.47;36.66;53005.06;5051738;28;20641;-67
2022/08/12 07:33:07;;;;;;;8.20;2.03;;;;;;;-144.47;36.62;53030.88;5051633;28;20012;-65
2022/08/12 07:35:44;;;;;;;9.27;2.05;;;;;;;-144.47;36.28;52991.16;5052392;28;20080;-68
2022/08/12 07:38:24;;;;;;;6.55;2.22;;;;;;;-144.47;36.28;52993.13;5051468;28;20025;-67
2022/08/12 07:40:58;;;;;;;3.30;1.60;;;;;;;-144.47;36.03;52981.22;5050937;28;20434;-67
2022/08/12 07:43:26;;;;;;;4.97;1.75;;;;;;;-144.47;35.85;53028.88;5051656;28;20036;-67
2022/08/12 07:45:53;;;;;;;8.07;2.15;;;;;;;-144.47;35.96;53034.84;5052086;28;20025;-66
2022/08/12 07:48:19;;;;;;;11.35;2.58;;;;;;;-144.47;35.91;53028.88;5050551;28;20135;-65
2022/08/12 07:50:44;;;;;;;12.18;2.92;;;;;;;-144.47;35.73;53024.91;5049625;28;20111;-66
2022/08/12 07:53:10;;;;;;;13.07;2.33;;;;;;;-144.47;35.26;53018.97;5059332;28;20107;-64
2022/08/12 07:55:35;;;;;;;10.02;1.92;;;;;;;-144.47;35.20;52957.38;5071165;28;20032;-67
2022/08/12 07:58:01;;;;;;;4.95;1.65;;;;;;;-144.47;35.29;53003.06;5071224;28;20032;-66
2022/08/12 08:00:33;;;;;;;4.75;1.90;;;;;;;-144.47;35.17;53034.84;5071128;28;20065;-64
2022/08/12 08:03:02;;;;;;;5.47;1.77;;;;;;;-144.47;34.83;53015.00;5071253;28;20016;-66
2022/08/12 08:06:05;;;;;;;14.90;1.80;;;;;;;-144.47;34.85;53016.97;5070993;28;20031;-67
2022/08/12 08:08:26;;;;;;;13.93;2.13;;;;;;;-144.47;34.89;52989.16;5068457;28;20028;-67
2022/08/12 08:12:52;;;;;;;5.05;2.00;;;;;;;-144.47;33.79;53040.81;5070771;28;20028;-66
2022/08/12 08:13:48;;;;;;;8.15;1.80;;;;;;;-144.47;33.75;52987.19;5070925;28;20036;-66
2022/08/12 08:16:14;;;;;;;4.68;1.58;;;;;;;-144.47;33.47;53013.00;5070720;28;20027;-67
2022/08/12 08:18:41;;;;;;;3.97;1.58;;;;;;;-144.47;33.26;52983.22;5071323;28;20020;-67
2022/08/12 08:21:07;;;;;;;4.00;1.20;;;;;;;-144.47;33.00;53009.03;5071003;28;20024;-69
2022/08/12 08:26:19;;;;;;;5.38;1.25;;;;;;;-144.47;32.72;52967.31;5050798;28;20066;-66
2022/08/12 08:28:44;;;;;;;5.28;1.35;;;;;;;-144.47;32.52;53016.97;5050576;28;20028;-65
2022/08/12 08:31:12;;;;;;;6.15;1.30;;;;;;;-144.47;32.53;53015.00;5050539;28;20025;-66
2022/08/12 08:33:37;;;;;;;8.65;1.60;;;;;;;-144.47;32.60;52979.22;5049740;28;20017;-67
2022/08/12 08:36:05;;;;;;;8.02;1.30;;;;;;;-144.47;32.40;53013.00;5049367;28;20401;-66
2022/08/12 08:38:30;;;;;;;5.70;1.45;;;;;;;-144.47;32.19;52971.28;5050806;28;20021;-67
2022/08/12 08:43:40;;;;;;;3.05;1.13;;;;;;;-144.47;32.17;52985.19;5070574;28;20070;-66
2022/08/12 08:46:05;;;;;;;8.73;1.35;;;;;;;-144.47;32.13;52965.34;5071613;28;20024;-68
2022/08/12 08:48:32;;;;;;;5.20;1.58;;;;;;;-144.47;31.79;53013.00;5070444;28;20122;-66
2022/08/12 08:50:58;;;;;;;9.35;1.20;;;;;;;-144.47;30.93;52971.28;5070188;28;20044;-66
2022/08/12 08:53:24;;;;;;;14.43;1.88;;;;;;;-144.47;31.13;52985.19;5070233;28;20496;-67
2022/08/12 08:55:49;;;;;;;4.38;1.30;;;;;;;-144.47;31.04;52929.59;5069917;28;20026;-67
2022/08/12 08:58:14;;;;;;;17.15;1.70;;;;;;;-144.47;31.37;52979.22;5070057;28;20017;-66
2022/08/12 09:00:40;;;;;;;8.73;1.50;;;;;;;-144.47;31.80;52945.47;5069673;28;20029;-67
2022/08/12 09:03:06;;;;;;;4.70;1.45;;;;;;;-144.47;31.70;52981.22;5068795;28;20095;-67
2022/08/12 09:05:33;;;;;;;6.10;1.60;;;;;;;-144.47;31.70;52975.25;5070562;28;20090;-65
2022/08/12 09:08:01;;;;;;;5.13;1.30;;;;;;;-144.47;31.73;52975.25;5069488;28;20437;-67
2022/08/12 09:10:27;;;;;;;5.07;1.65;;;;;;;-144.47;31.68;52983.22;5069898;28;20043;-66
2022/08/12 09:15:38;;;;;;;11.13;2.33;;;;;;;-144.47;31.86;52991.16;5044584;28;20110;-66
2022/08/12 09:18:06;;;;;;;12.10;2.08;;;;;;;-144.47;31.97;52973.28;5049571;28;20066;-68
2022/08/12 09:20:33;;;;;;;15.50;1.58;;;;;;;-144.47;31.53;52941.50;5049779;28;20115;-67
2022/08/12 09:23:00;;;;;;;12.35;1.80;;;;;;;-144.47;31.51;52963.34;5049480;28;20051;-64
2022/08/12 09:25:30;;;;;;;11.13;2.22;;;;;;;-144.47;31.57;52989.16;5049683;28;20342;-67
2022/08/12 09:27:57;;;;;;;10.57;1.60;;;;;;;-144.47;31.57;52955.41;5048036;28;20612;-66
2022/08/12 09:30:23;;;;;;;3.35;1.35;;;;;;;-144.47;31.41;52991.16;5049752;28;20044;-66
2022/08/12 09:32:49;;;;;;;9.32;2.20;;;;;;;-144.47;31.48;52987.19;5049725;28;20028;-65
2022/08/12 09:35:16;;;;;;;3.10;1.02;;;;;;;-144.47;31.23;52967.31;5047999;28;20030;-67
2022/08/12 09:37:41;;;;;;;7.55;1.50;;;;;;;-144.47;31.43;52955.41;5049055;28;20092;-68
2022/08/12 09:40:07;;;;;;;8.68;1.40;;;;;;;-144.47;31.33;52967.31;5049270;28;20159;-65
2022/08/12 09:45:22;;;;;;;6.90;1.35;;;;;;;-144.47;30.80;52963.34;5052005;28;20032;-67
2022/08/12 09:47:52;;;;;;;3.47;1.20;;;;;;;-144.47;30.44;52987.19;5052761;28;20016;-68
2022/08/12 09:50:18;;;;;;;12.10;1.45;;;;;;;-144.47;30.55;52949.44;5053540;28;20024;-67
2022/08/12 09:52:45;;;;;;;14.75;1.40;;;;;;;-144.47;30.59;52979.22;5045004;28;20078;-65
2022/08/12 09:55:11;;;;;;;4.28;1.17;;;;;;;-144.47;30.48;52939.50;5053077;28;20056;-65
2022/08/12 09:57:37;;;;;;;4.50;1.20;;;;;;;-144.47;30.30;52923.63;5052725;28;20033;-69
2022/08/12 10:00:11;;;;;;;11.10;1.50;;;;;;;-144.47;30.42;52971.28;5052500;28;20017;-66
2022/08/12 10:02:37;;;;;;;10.40;1.83;;;;;;;-144.47;30.49;52959.38;5052539;28;20029;-68
2022/08/12 10:05:31;;;;;;;5.28;1.20;;;;;;;-144.47;30.66;52951.44;5056332;28;20031;-75
2022/08/12 10:07:58;;;;;;;9.27;1.30;;;;;;;-144.47;30.74;52965.34;5052877;28;20017;-68
2022/08/12 10:10:23;;;;;;;3.83;1.25;;;;;;;-144.47;30.64;52951.44;5053296;28;20055;-67
2022/08/12 10:15:32;;;;;;;11.68;1.55;;;;;;;-144.47;30.62;52965.34;5053971;28;20579;-67
2022/08/12 10:17:58;;;;;;;10.77;3.63;;;;;;;-144.47;30.69;52941.50;5053250;28;20029;-67
2022/08/12 10:20:32;;;;;;;12.80;1.63;;;;;;;-144.47;30.46;52955.41;5058936;28;20027;-69
2022/08/12 10:22:58;;;;;;;10.13;1.52;;;;;;;-144.47;30.43;52971.28;5072453;28;20543;-68
2022/08/12 10:30:52;;;;;;;5.40;1.30;;;;;;;-144.47;30.51;52955.41;5073217;28;20050;-67
2022/08/12 10:33:17;;;;;;;12.05;1.60;;;;;;;-144.47;30.12;52945.47;5061273;28;20021;-69
2022/08/12 10:35:43;;;;;;;6.50;1.42;;;;;;;-144.47;29.83;52969.31;5052403;28;20493;-69
2022/08/12 10:38:10;;;;;;;12.73;1.73;;;;;;;-144.47;29.72;52985.19;5071823;28;20085;-69
2022/08/12 10:43:41;;;;;;;10.38;1.75;;;;;;;-144.47;29.69;52957.38;5067743;28;20024;-65
2022/08/12 10:43:42;;;;;;;7.63;1.30;;;;;;;-144.47;29.62;52975.25;5041977;28;20474;-68
2022/08/12 10:46:15;;;;;;;14.73;1.60;;;;;;;-144.47;29.79;52935.53;5052318;28;20036;-67
2022/08/12 10:48:50;;;;;;;12.55;1.45;;;;;;;-144.47;29.92;52953.41;5051088;28;20027;-68
2022/08/12 10:51:18;;;;;;;9.32;1.63;;;;;;;-144.47;29.82;52919.66;5051388;28;20070;-67
2022/08/12 10:53:48;;;;;;;13.75;1.45;;;;;;;-144.47;29.66;52949.44;5053239;28;20018;-67
2022/08/12 10:56:15;;;;;;;8.48;1.63;;;;;;;-144.47;29.91;52939.50;5071835;28;20020;-66
2022/08/12 10:58:40;;;;;;;3.88;1.50;;;;;;;-144.47;29.86;52973.28;5072202;28;20070;-68
2022/08/12 11:01:09;;;;;;;5.90;1.80;;;;;;;-144.47;29.91;52933.56;5072196;28;20063;-67
2022/08/12 11:03:36;;;;;;;;;;;;;;;-144.47;29.87;52939.50;5056249;28;20098;-67
2022/08/12 11:06:03;;;;;;;6.55;1.50;;;;;;;-144.47;29.97;52961.34;5051794;28;19935;-70
2022/08/12 11:08:28;;;;;;;4.30;1.15;;;;;;;-144.47;29.95;52941.50;5051458;28;20028;-68
2022/08/12 11:10:54;;;;;;;19.52;1.40;;;;;;;-144.47;30.07;52985.19;5049671;28;20074;-65
2022/08/12 11:13:19;;;;;;;4.40;1.38;;;;;;;-144.47;30.05;52965.34;5043518;28;20177;-68
2022/08/12 11:15:45;;;;;;;12.02;1.60;;;;;;;-144.47;29.05;52913.69;5046047;28;20040;-68
2022/08/12 11:18:11;;;;;;;5.95;1.27;;;;;;;-144.47;28.75;52963.34;5032272;28;21128;-68
2022/08/12 11:20:37;;;;;;;4.47;1.30;;;;;;;-144.47;28.34;52947.47;5043481;28;20043;-71
2022/08/12 11:23:03;;;;;;;2.80;1.40;;;;;;;-144.47;28.53;52947.47;5042948;28;20029;-72
2022/08/12 11:25:28;;;;;;;6.80;1.17;;;;;;;-144.47;28.45;52931.56;5050096;28;20114;-68
2022/08/12 11:27:53;;;;;;;7.53;1.38;;;;;;;-144.47;28.52;52967.31;5050295;28;20056;-65
2022/08/12 11:30:19;;;;;;;13.77;2.50;;;;;;;-144.47;28.70;52945.47;5050233;28;20048;-68
2022/08/12 11:32:45;;;;;;;4.95;1.63;;;;;;;-144.47;28.67;52953.41;5051767;28;20075;-68
2022/08/12 11:35:10;;;;;;;8.05;1.60;;;;;;;-144.47;28.46;52915.69;5048929;28;20043;-69
2022/08/12 11:37:37;;;;;;;5.15;1.30;;;;;;;-144.47;28.84;52943.47;5039108;28;20025;-68
2022/08/12 11:40:04;;;;;;;4.80;1.40;;;;;;;-144.47;28.98;52949.44;5037668;28;20024;-67
2022/08/12 11:42:30;;;;;;;11.35;1.30;;;;;;;-144.47;28.92;52949.44;5069695;28;20016;-67
2022/08/12 11:44:55;;;;;;;4.70;1.60;;;;;;;-144.47;28.84;52947.47;5070736;28;20077;-67
2022/08/12 11:47:21;;;;;;;10.57;1.55;;;;;;;-144.47;28.69;52949.44;5070037;28;20492;-66
2022/08/12 11:49:47;;;;;;;3.13;1.20;;;;;;;-144.47;28.25;52941.50;5069332;28;20390;-67
2022/08/12 11:52:12;;;;;;;5.30;1.27;;;;;;;-144.47;28.10;52955.41;5068913;28;20051;-65
2022/08/12 11:54:38;;;;;;;3.47;1.40;;;;;;;-144.47;28.28;52931.56;5068827;28;20426;-68
2022/08/12 11:57:04;;;;;;;8.55;1.48;;;;;;;-144.47;28.50;52897.81;5069823;28;20107;-67
2022/08/12 11:59:31;;;;;;;4.85;1.15;;;;;;;-144.47;28.69;52937.53;5085577;28;20048;-67
2022/08/12 12:01:56;;;;;;;5.53;1.42;;;;;;;-144.47;27.61;52891.84;5052272;28;20526;-65
2022/08/12 12:04:22;;;;;;;3.97;1.23;;;;;;;-144.47;27.39;52897.81;5054929;28;20100;-68
2022/08/12 12:06:47;;;;;;;7.22;1.20;;;;;;;-144.47;27.19;52943.47;5045354;28;20043;-67
2022/08/12 12:09:12;;;;;;;8.25;1.13;;;;;;;-144.47;27.11;52959.38;5040320;28;20485;-67
2022/08/12 12:11:38;;;;;;;10.82;1.15;;;;;;;-144.47;27.63;52927.59;5070402;28;20150;-68
2022/08/12 12:14:03;;;;;;;6.65;1.63;;;;;;;-144.47;27.41;52911.69;5070630;28;20024;-64
2022/08/12 12:16:29;;;;;;;7.75;1.35;;;;;;;-144.47;27.07;52931.56;5069904;28;20159;-66
2022/08/12 12:18:54;;;;;;;6.60;1.52;;;;;;;-144.47;26.62;52937.53;5070157;28;20028;-67
2022/08/12 12:21:20;;;;;;;11.18;1.50;;;;;;;-144.47;26.58;52923.63;5050695;22;20562;-68
2022/08/12 12:23:45;;;;;;;6.63;1.30;;;;;;;-144.47;26.65;52921.63;5049180;28;20021;-67
2022/08/12 12:26:11;;;;;;;2.67;1.00;;;;;;;-144.47;26.31;52917.66;5031705;28;20123;-67
2022/08/12 12:28:37;;;;;;;6.90;1.30;;;;;;;-144.47;26.02;52895.81;5031823;28;20025;-70
2022/08/12 12:31:03;;;;;;;4.32;1.30;;;;;;;-144.47;26.38;52893.81;5037227;28;20037;-71
2022/08/12 12:33:29;;;;;;;6.75;1.42;;;;;;;-144.47;26.81;52919.66;4991707;28;20026;-70
2022/08/12 12:35:54;;;;;;;4.28;1.30;;;;;;;-144.47;26.76;52953.41;5021178;28;20108;-67
2022/08/12 12:38:20;;;;;;;4.10;1.23;;;;;;;-144.47;26.68;52905.75;5031139;28;20025;-70
2022/08/12 12:40:47;;;;;;;3.63;1.23;;;;;;;-144.47;27.03;52893.81;5025211;28;20048;-69
2022/08/12 12:43:13;;;;;;;12.88;1.38;;;;;;;-144.47;27.10;52919.66;5044445;28;20426;-70
2022/08/12 12:45:39;;;;;;;3.97;1.20;;;;;;;-144.47;27.01;52897.81;5022368;28;20032;-71
2022/08/12 12:48:12;;;;;;;6.45;1.67;;;;;;;-144.47;26.93;52949.44;5049587;28;20021;-67
2022/08/12 12:50:39;;;;;;;4.30;1.17;;;;;;;-144.47;27.13;52921.63;5028119;28;20405;-68
2022/08/12 12:53:07;;;;;;;3.73;1.40;;;;;;;-144.47;26.63;52871.97;5025634;28;20112;-69
2022/08/12 12:55:34;;;;;;;11.73;1.95;;;;;;;-144.47;26.51;52911.69;5011534;28;20266;-67
2022/08/12 12:58:00;;;;;;;1.88;1.20;;;;;;;-144.47;26.45;52889.84;5018272;28;20462;-67
2022/08/12 13:00:26;;;;;;;7.80;1.55;;;;;;;-144.47;25.93;52895.81;5029042;28;20377;-67
2022/08/12 13:02:56;;;;;;;14.02;1.55;;;;;;;-144.47;25.82;52899.78;5018204;28;20048;-67
2022/08/12 13:05:31;;;;;;;2.90;1.45;;;;;;;-144.47;25.47;52903.75;5048755;28;20403;-71
2022/08/12 13:07:59;;;;;;;7.88;1.33;;;;;;;-144.47;25.87;52895.81;5037679;28;20048;-67